LFCK/DCM METAR and TAF weather

Enter ICAO airport designator
Station Type Date Time Source
LFCK METAR 2020/07/15 09:00 UTC NOAA

LFCK 150900Z AUTO 28009KT 2400 1400 R14/P2000 -RA BR BKN006 BKN011 OVC019 16/15 Q1021 TEMPO 4000 -RA BKN012


Station Type Date Time Source
LFCK Decoded METAR 2020/07/15 09:00 UTC NOAA

Station name not available
Jul 15, 2020 - 05:00 AM EDT / 2020.07.15 0900 UTC
Wind: from the W (280 degrees) at 10 MPH (9 KT):0
Visibility: 1 mile(s):0
Sky conditions: overcast
Weather: light rain; mist
Temperature: 60 F (16 C)
Dew Point: 59 F (15 C)
Relative Humidity: 93%
Pressure (altimeter): 30.15 in. Hg (1021 hPa)
ob: LFCK 150900Z AUTO 28009KT 2400 1400 R14/P2000 -RA BR BKN006 BKN011 OVC019 16/15 Q1021 TEMPO 4000 -RA BKN012
cycle: 9

Station Type Date Time Source
LFCK TAF UTC NOAA

Error!

Example: see airport list